Stanley, KS

6:11 PM CST on February 25, 2017 (GMT -0600)
KKSSTANL1 | | Change Station

Elev 1090 ft 38.86 °N, 94.68 °W | Updated 2 minutes ago

Clear
Clear
39.8 °F
Feels Like 40 °F
N
1.0
Wind Variable Wind from SSW
Gusts 4.0 mph

Today
High -- | Low -- °F
--% Chance of Precip.
Yesterday
High -- | Low -- °F
Precip. -- in
Pressure 30.09 in
Visibility 10.0 miles
Clouds Clear
Windchill 40 °F
Dew Point 12 °F
Humidity 31%
Rainfall 0.00 in
Snow Depth Not available.
6:56 AM 6:07 PM
Waning Crescent, 0% visible
METAR KOJC 252353Z 19004KT 10SM CLR 03/M12 A3005 RMK AO2 SLP187 T00331117 10050 20011 58017
Pressure 30.09 in
Visibility 10.0 miles
Clouds Clear
Windchill 40 °F
Dew Point 12 °F
Humidity 31%
Rainfall 0.00 in
Snow Depth Not available.
6:56 AM 6:07 PM
Waning Crescent, 0% visible
METAR KOJC 252353Z 19004KT 10SM CLR 03/M12 A3005 RMK AO2 SLP187 T00331117 10050 20011 58017

Get Your Daily Forecast Email!

Thanks for signing up!

Be on the lookout for a verification email in your inbox.

You'll start receiving the daily forecast at 8 AM.

×

10-Day Weather Forecast

Almanac

Astronomy

Feb. 25, 2017 Rise Set
Actual Time
Civil Twilight
Nautical Twilight
Astronomical Twilight
Moon
Length of Visible Light
Length of Day
Tomorrow will be .
, % of the Moon is Illuminated

Today's Extremes

State Highs State Lows

Community

WunderPhotos

Upload Photos

1,962,540 photos uploaded!

WunderBlog® & News

Nearby

Air Quality

  Air Quality AQ Index Pollutant
Not available.

Snow Depth

Station Depth Elevation

Earthquake Activity

City Distance Mag. Time & Date
Minimum magnitude displayed is 2.5.

Coastal Water Temperatures

Place Temperature

Stations

Nearby Weather Stations

Station Location Temp. Windchill Dew Point Humidity Wind Precip. Elev Updated Type
                   

Watches & Warnings

There are currently no watches in effect.